createdAt,value
2023-02-11T00:00:11.866Z,8.06
2023-02-11T00:02:46.048Z,7.97
2023-02-11T00:05:18.268Z,8.04
2023-02-11T00:07:49.948Z,7.90
2023-02-11T00:10:20.560Z,7.97
2023-02-11T00:12:49.568Z,7.93
2023-02-11T00:15:21.829Z,7.82
2023-02-11T00:17:51.017Z,7.68
2023-02-11T00:20:23.155Z,7.62
2023-02-11T00:22:53.030Z,7.65
2023-02-11T00:25:22.105Z,7.58
2023-02-11T00:27:54.225Z,7.54
2023-02-11T00:30:23.370Z,7.59
2023-02-11T00:32:52.325Z,7.74
2023-02-11T00:35:21.654Z,7.48
2023-02-11T00:37:54.538Z,7.50
2023-02-11T00:40:24.866Z,7.56
2023-02-11T00:42:53.825Z,7.38
2023-02-11T00:45:25.924Z,7.45
2023-02-11T00:47:57.686Z,7.42
2023-02-11T00:50:26.514Z,7.52
2023-02-11T00:52:57.960Z,7.45
2023-02-11T00:55:27.317Z,7.45
2023-02-11T00:57:59.761Z,7.27
2023-02-11T01:00:29.101Z,7.30
2023-02-11T01:03:00.306Z,7.26
2023-02-11T01:05:30.866Z,7.24
2023-02-11T01:08:01.964Z,7.21
2023-02-11T01:10:34.645Z,7.25
2023-02-11T01:13:05.754Z,7.15
2023-02-11T01:15:34.697Z,7.28
2023-02-11T01:18:06.211Z,7.23
2023-02-11T01:20:35.434Z,7.27
2023-02-11T01:23:04.506Z,7.38
2023-02-11T01:25:37.290Z,7.50
2023-02-11T01:28:13.033Z,7.44
2023-02-11T01:30:42.540Z,7.59
2023-02-11T01:33:12.389Z,7.51
2023-02-11T01:35:43.360Z,7.55
2023-02-11T01:38:21.582Z,7.55
2023-02-11T01:41:03.288Z,7.60
2023-02-11T01:43:35.625Z,7.58
2023-02-11T01:46:05.841Z,7.53
2023-02-11T01:48:37.712Z,7.54
2023-02-11T01:51:11.933Z,7.47
2023-02-11T01:54:01.998Z,7.52
2023-02-11T01:56:53.815Z,7.53
2023-02-11T01:59:26.306Z,7.32
2023-02-11T02:01:58.443Z,7.42
2023-02-11T02:04:32.031Z,7.53
2023-02-11T02:07:09.708Z,7.56
2023-02-11T02:09:42.480Z,7.57
2023-02-11T02:12:11.606Z,7.68
2023-02-11T02:14:42.307Z,7.73
2023-02-11T02:17:21.807Z,7.80
2023-02-11T02:20:11.520Z,7.69
2023-02-11T02:22:54.131Z,7.64
2023-02-11T02:25:44.745Z,7.71
2023-02-11T02:28:37.822Z,7.60
2023-02-11T02:31:27.817Z,7.82
2023-02-11T02:34:15.101Z,7.97
2023-02-11T02:36:58.648Z,7.81
2023-02-11T02:39:29.769Z,7.89
2023-02-11T02:41:58.881Z,8.11
2023-02-11T02:44:29.661Z,8.09
2023-02-11T02:46:59.832Z,7.92
2023-02-11T02:49:28.863Z,7.94
2023-02-11T02:52:19.584Z,8.06
2023-02-11T02:55:06.864Z,7.71
2023-02-11T02:57:48.964Z,7.72
2023-02-11T03:00:32.447Z,7.62
2023-02-11T03:03:18.908Z,7.76
2023-02-11T03:05:55.848Z,7.77
2023-02-11T03:08:38.380Z,7.82
2023-02-11T03:11:07.752Z,7.82
2023-02-11T03:13:39.723Z,7.86
2023-02-11T03:16:22.470Z,7.73
2023-02-11T03:18:57.805Z,7.80
2023-02-11T03:21:27.130Z,7.78
2023-02-11T03:24:02.746Z,8.04
2023-02-11T03:26:41.433Z,7.96
2023-02-11T03:29:18.290Z,7.96
2023-02-11T03:32:19.040Z,7.84
2023-02-11T03:35:01.955Z,7.83
2023-02-11T03:37:41.289Z,7.82
2023-02-11T03:40:16.523Z,7.75
2023-02-11T03:42:50.186Z,7.81
2023-02-11T03:45:28.382Z,7.88
2023-02-11T03:48:21.643Z,7.99
2023-02-11T03:50:50.967Z,7.87
2023-02-11T03:53:22.278Z,7.80
2023-02-11T03:55:53.079Z,7.88
2023-02-11T03:58:22.284Z,7.79
2023-02-11T04:00:51.936Z,7.92
2023-02-11T04:03:21.373Z,7.77
2023-02-11T04:05:50.892Z,8.06
2023-02-11T04:08:23.045Z,7.85
2023-02-11T04:10:53.333Z,7.92
2023-02-11T04:13:24.586Z,7.89
2023-02-11T04:15:54.201Z,8.03
2023-02-11T04:18:23.508Z,8.08
2023-02-11T04:20:52.905Z,8.03
2023-02-11T04:23:23.516Z,7.88
2023-02-11T04:25:53.080Z,7.78
2023-02-11T04:28:27.452Z,8.01
2023-02-11T04:30:57.008Z,7.85
2023-02-11T04:33:28.859Z,7.90
2023-02-11T04:35:59.566Z,7.74
2023-02-11T04:38:28.997Z,7.88
2023-02-11T04:41:00.179Z,7.79
2023-02-11T04:43:35.022Z,7.72
2023-02-11T04:46:04.612Z,7.77
2023-02-11T04:48:36.408Z,7.86
2023-02-11T04:51:06.108Z,7.67
2023-02-11T04:53:35.307Z,7.57
2023-02-11T04:56:05.287Z,7.76
2023-02-11T04:58:35.847Z,7.62
2023-02-11T05:01:09.275Z,7.49
2023-02-11T05:03:39.254Z,7.62
2023-02-11T05:06:11.214Z,7.51
2023-02-11T05:08:44.463Z,7.46
2023-02-11T05:11:19.422Z,7.43
2023-02-11T05:13:49.161Z,7.47
2023-02-11T05:16:23.222Z,7.60
2023-02-11T05:18:56.255Z,7.57
2023-02-11T05:21:29.355Z,7.69
2023-02-11T05:23:59.178Z,7.85
2023-02-11T05:26:34.074Z,7.85
2023-02-11T05:29:03.716Z,7.73
2023-02-11T05:31:34.253Z,7.72
2023-02-11T05:34:05.585Z,7.77
2023-02-11T05:36:35.396Z,7.68
2023-02-11T05:39:05.800Z,7.76
2023-02-11T05:41:37.109Z,7.66
2023-02-11T05:44:08.300Z,7.67
2023-02-11T05:46:39.629Z,7.62
2023-02-11T05:49:09.971Z,7.62
2023-02-11T05:51:39.159Z,7.48
2023-02-11T05:54:08.523Z,7.56
2023-02-11T05:56:38.938Z,7.50
2023-02-11T05:59:08.228Z,7.52
2023-02-11T06:01:40.987Z,7.49
2023-02-11T06:04:10.700Z,7.54
2023-02-11T06:06:40.116Z,7.51
2023-02-11T06:09:13.148Z,7.58
2023-02-11T06:11:42.803Z,7.61
2023-02-11T06:14:15.245Z,7.72
2023-02-11T06:16:46.105Z,7.71
2023-02-11T06:19:16.025Z,7.72
2023-02-11T06:21:46.564Z,7.76
2023-02-11T06:24:47.699Z,7.68
2023-02-11T06:27:14.498Z,7.80
2023-02-11T06:29:45.189Z,7.77
2023-02-11T06:32:37.001Z,7.58
2023-02-11T06:35:05.967Z,7.57
2023-02-11T06:37:37.166Z,7.57
2023-02-11T06:40:09.829Z,7.65
2023-02-11T06:42:39.949Z,7.70
2023-02-11T06:45:11.325Z,7.67
2023-02-11T06:47:42.692Z,7.66
2023-02-11T06:50:14.077Z,7.56
2023-02-11T06:52:44.109Z,7.52
2023-02-11T06:55:14.658Z,7.54
2023-02-11T06:57:48.051Z,7.58
2023-02-11T07:00:18.380Z,7.58
2023-02-11T07:02:49.168Z,7.63
2023-02-11T07:05:19.910Z,7.68
2023-02-11T07:07:49.313Z,7.69
2023-02-11T07:10:23.182Z,7.67
2023-02-11T07:12:57.002Z,7.67
2023-02-11T07:15:28.223Z,7.68
2023-02-11T07:17:57.581Z,7.58
2023-02-11T07:20:27.544Z,7.62
2023-02-11T07:22:59.272Z,7.57
2023-02-11T07:25:28.328Z,7.70
2023-02-11T07:27:58.549Z,7.78
2023-02-11T07:30:28.572Z,7.78
2023-02-11T07:32:57.589Z,7.74
2023-02-11T07:35:27.283Z,7.62
2023-02-11T07:37:56.906Z,7.61
2023-02-11T07:40:26.910Z,7.61
2023-02-11T07:42:59.047Z,7.50
2023-02-11T07:45:28.682Z,7.49
2023-02-11T07:47:58.048Z,7.55
2023-02-11T07:50:27.422Z,7.52
2023-02-11T07:52:57.408Z,7.58
2023-02-11T07:55:27.269Z,7.53
2023-02-11T07:57:57.967Z,7.47
2023-02-11T08:00:27.491Z,7.45
2023-02-11T08:03:20.466Z,7.39
2023-02-11T08:05:57.555Z,7.44
2023-02-11T08:08:28.446Z,7.43
2023-02-11T08:10:57.899Z,7.38
2023-02-11T08:13:29.707Z,7.34
2023-02-11T08:16:11.215Z,7.31
2023-02-11T08:18:41.705Z,7.40
2023-02-11T08:21:12.745Z,7.43
2023-02-11T08:23:48.303Z,7.44
2023-02-11T08:26:26.825Z,7.55
2023-02-11T08:28:59.905Z,7.52
2023-02-11T08:31:39.564Z,7.57
2023-02-11T08:34:11.400Z,7.70
2023-02-11T08:36:41.964Z,7.67
2023-02-11T08:39:22.343Z,7.80
2023-02-11T08:41:53.860Z,8.01
2023-02-11T08:44:25.754Z,8.10
2023-02-11T08:46:54.791Z,8.19
2023-02-11T08:49:24.795Z,8.22
2023-02-11T08:51:59.282Z,8.32
2023-02-11T08:54:34.383Z,8.40
2023-02-11T08:57:04.312Z,8.49
2023-02-11T08:59:35.151Z,8.41
2023-02-11T09:02:04.417Z,8.40
2023-02-11T09:04:34.056Z,8.43
2023-02-11T09:07:06.306Z,8.36
2023-02-11T09:09:37.356Z,8.14
2023-02-11T09:12:11.821Z,8.11
2023-02-11T09:14:45.780Z,8.00
2023-02-11T09:17:14.889Z,8.31
2023-02-11T09:19:47.037Z,8.23
2023-02-11T09:22:16.348Z,8.12
2023-02-11T09:24:48.207Z,8.14
2023-02-11T09:27:23.246Z,8.04
2023-02-11T09:29:53.979Z,8.08
2023-02-11T09:35:09.061Z,7.95
2023-02-11T09:37:39.814Z,7.92
2023-02-11T09:40:12.079Z,7.97
2023-02-11T09:43:06.007Z,7.74
2023-02-11T09:45:36.754Z,8.01
2023-02-11T09:48:14.005Z,7.92
2023-02-11T09:50:58.869Z,7.88
2023-02-11T09:53:36.207Z,7.99
2023-02-11T09:56:15.945Z,8.05
2023-02-11T09:58:49.639Z,8.17
2023-02-11T10:01:37.359Z,7.97
2023-02-11T10:04:26.528Z,7.89
2023-02-11T10:07:24.538Z,8.06
2023-02-11T10:10:22.627Z,8.02
2023-02-11T10:13:01.918Z,8.11
2023-02-11T10:16:08.093Z,7.98
2023-02-11T10:18:47.657Z,7.83
2023-02-11T10:21:21.219Z,7.88
2023-02-11T10:23:52.892Z,7.80
2023-02-11T10:26:22.469Z,7.86
2023-02-11T10:28:58.645Z,8.06
2023-02-11T10:31:39.509Z,8.32
2023-02-11T10:34:13.635Z,8.30
2023-02-11T10:36:45.361Z,8.28
2023-02-11T10:39:28.881Z,8.31
2023-02-11T10:42:15.061Z,8.23
2023-02-11T10:45:06.366Z,8.39
2023-02-11T10:47:38.219Z,8.16
2023-02-11T10:50:37.578Z,8.16
2023-02-11T10:53:17.564Z,8.03
2023-02-11T10:55:54.529Z,7.94
2023-02-11T10:58:29.601Z,8.06
2023-02-11T11:01:00.392Z,8.19
2023-02-11T11:03:33.124Z,8.35
2023-02-11T11:06:10.856Z,8.53
2023-02-11T11:08:49.889Z,8.46
2023-02-11T11:11:24.996Z,8.52
2023-02-11T11:14:04.514Z,8.43
2023-02-11T11:16:36.377Z,8.50
2023-02-11T11:19:09.711Z,8.63
2023-02-11T11:21:47.287Z,8.74
2023-02-11T11:24:32.832Z,9.06
2023-02-11T11:27:06.569Z,9.21
2023-02-11T11:29:40.872Z,9.24
2023-02-11T11:32:23.520Z,9.41
2023-02-11T11:34:56.393Z,9.46
2023-02-11T11:37:28.170Z,9.16
2023-02-11T11:40:08.652Z,9.08
2023-02-11T11:42:39.816Z,8.97
2023-02-11T11:45:17.008Z,8.95
2023-02-11T11:48:06.556Z,8.98
2023-02-11T11:50:54.583Z,9.09
2023-02-11T11:53:53.648Z,9.28
2023-02-11T11:56:38.295Z,9.40
2023-02-11T11:59:14.273Z,9.42
2023-02-11T12:02:16.215Z,9.53
2023-02-11T12:04:56.305Z,9.64
2023-02-11T12:07:51.455Z,9.58
2023-02-11T12:10:47.233Z,9.65
2023-02-11T12:13:54.897Z,9.56
2023-02-11T12:16:47.882Z,9.54
2023-02-11T12:19:46.741Z,9.37
2023-02-11T12:22:41.466Z,9.41
2023-02-11T12:25:22.097Z,9.38
2023-02-11T12:28:16.163Z,9.60
2023-02-11T12:31:17.784Z,9.56
2023-02-11T12:34:03.164Z,9.81
2023-02-11T12:37:00.229Z,9.69
2023-02-11T12:39:36.493Z,9.86
2023-02-11T12:42:38.085Z,9.88
2023-02-11T12:45:12.357Z,9.88
2023-02-11T12:48:16.706Z,9.70
2023-02-11T12:50:49.366Z,9.54
2023-02-11T12:53:28.314Z,9.43
2023-02-11T12:56:04.285Z,9.46
2023-02-11T12:58:44.842Z,9.32
2023-02-11T13:01:23.472Z,9.30
2023-02-11T13:04:07.659Z,9.51
2023-02-11T13:07:04.263Z,9.37
2023-02-11T13:09:39.120Z,9.28
2023-02-11T13:12:29.379Z,9.16
2023-02-11T13:15:02.428Z,9.24
2023-02-11T13:18:06.311Z,9.17
2023-02-11T13:20:44.710Z,9.17
2023-02-11T13:23:42.885Z,9.07
2023-02-11T13:26:41.419Z,9.09
2023-02-11T13:29:17.656Z,9.09
2023-02-11T13:32:07.759Z,8.94
2023-02-11T13:34:45.305Z,8.92
2023-02-11T13:37:27.270Z,8.90
2023-02-11T13:40:00.462Z,8.80
2023-02-11T13:42:32.134Z,8.93
2023-02-11T13:45:02.381Z,9.01
2023-02-11T13:47:33.704Z,9.06
2023-02-11T13:50:04.624Z,9.18
2023-02-11T13:52:35.685Z,8.87
2023-02-11T13:55:08.624Z,8.83
2023-02-11T13:57:41.187Z,8.90
2023-02-11T14:00:44.118Z,8.68
2023-02-11T14:03:41.559Z,8.70
2023-02-11T14:06:33.925Z,8.67
2023-02-11T14:09:11.554Z,8.74
2023-02-11T14:11:42.396Z,8.92
2023-02-11T14:14:36.082Z,8.94
2023-02-11T14:17:09.879Z,8.99
2023-02-11T14:19:44.358Z,8.95
2023-02-11T14:22:32.718Z,8.83
2023-02-11T14:25:05.026Z,8.65
2023-02-11T14:27:35.180Z,8.71
2023-02-11T14:30:17.480Z,8.63
2023-02-11T14:33:18.460Z,8.58
2023-02-11T14:36:14.432Z,8.51
2023-02-11T14:39:44.908Z,8.64
2023-02-11T14:42:20.729Z,8.61
2023-02-11T14:44:51.321Z,8.40
2023-02-11T14:47:30.642Z,8.35
2023-02-11T14:50:01.765Z,8.25
2023-02-11T14:52:33.900Z,8.30
2023-02-11T14:55:24.559Z,8.43
2023-02-11T14:58:07.428Z,8.28
2023-02-11T15:00:37.404Z,8.36
2023-02-11T15:03:10.090Z,8.30
2023-02-11T15:05:42.242Z,8.40
2023-02-11T15:08:14.770Z,8.36
2023-02-11T15:10:46.049Z,8.32
2023-02-11T15:13:32.060Z,8.36
2023-02-11T15:16:10.721Z,8.50
2023-02-11T15:18:42.546Z,8.51
2023-02-11T15:21:13.348Z,8.42
2023-02-11T15:23:45.557Z,8.50
2023-02-11T15:26:23.862Z,8.54
2023-02-11T15:28:57.081Z,8.49
2023-02-11T15:31:27.808Z,8.41
2023-02-11T15:34:07.935Z,8.45
2023-02-11T15:36:39.699Z,8.68
2023-02-11T15:39:41.706Z,8.54
2023-02-11T15:42:40.858Z,8.44
2023-02-11T15:45:18.795Z,8.39
2023-02-11T15:47:52.125Z,8.36
2023-02-11T15:50:26.448Z,8.34
2023-02-11T15:52:58.992Z,8.46
2023-02-11T19:17:42.634Z,18.60
2023-02-11T19:20:12.709Z,7.05
2023-02-11T19:22:42.485Z,7.41
2023-02-11T19:25:13.394Z,7.24
2023-02-11T19:27:44.072Z,7.52
2023-02-11T19:30:16.321Z,7.48
2023-02-11T19:32:47.794Z,7.80
2023-02-11T19:35:17.648Z,8.00
2023-02-11T19:37:47.532Z,8.16
2023-02-11T19:40:25.945Z,7.92
2023-02-11T19:43:00.173Z,7.85
2023-02-11T19:45:30.203Z,7.65
2023-02-11T19:47:59.941Z,7.65
2023-02-11T19:50:29.919Z,7.76
2023-02-11T19:52:59.671Z,7.72
2023-02-11T19:55:29.955Z,7.65
2023-02-11T19:57:59.313Z,7.74
2023-02-11T20:00:29.729Z,7.65
2023-02-11T20:03:01.297Z,7.60
2023-02-11T20:05:36.091Z,7.43
2023-02-11T20:08:07.224Z,7.55
2023-02-11T20:10:37.631Z,7.59
2023-02-11T20:13:10.232Z,7.58
2023-02-11T20:15:42.517Z,7.61
2023-02-11T20:18:15.372Z,7.64
2023-02-11T20:20:45.688Z,7.84
2023-02-11T20:23:15.754Z,8.05
2023-02-11T20:25:48.561Z,7.91
2023-02-11T20:28:19.238Z,7.93
2023-02-11T20:30:58.926Z,7.98
2023-02-11T20:33:31.981Z,7.88
2023-02-11T20:36:04.767Z,7.81
2023-02-11T20:38:36.859Z,7.82
2023-02-11T20:41:10.197Z,8.00
2023-02-11T20:43:40.648Z,7.97
2023-02-11T20:46:16.046Z,7.96
2023-02-11T20:48:46.096Z,8.00
2023-02-11T20:51:19.095Z,8.13
2023-02-11T20:53:50.086Z,8.13
2023-02-11T20:56:22.861Z,8.20
2023-02-11T20:58:54.350Z,8.32
2023-02-11T21:01:25.794Z,8.32
2023-02-11T21:04:04.269Z,8.69
2023-02-11T21:06:42.233Z,8.59
2023-02-11T21:09:16.520Z,8.73
2023-02-11T21:11:54.949Z,8.87
2023-02-11T21:14:25.343Z,8.72
2023-02-11T21:16:58.071Z,8.86
2023-02-11T21:19:28.252Z,8.98
2023-02-11T21:22:01.265Z,9.14
2023-02-11T21:24:34.035Z,9.11
2023-02-11T21:27:08.460Z,9.00
2023-02-11T21:29:52.676Z,9.01
2023-02-11T21:32:23.858Z,8.70
2023-02-11T21:34:55.968Z,8.42
2023-02-11T21:37:25.583Z,8.24
2023-02-11T21:39:55.347Z,8.69
2023-02-11T21:42:24.321Z,8.89
2023-02-11T21:44:56.299Z,9.01
2023-02-11T21:47:26.239Z,8.99
2023-02-11T21:49:57.751Z,9.21
2023-02-11T21:52:31.691Z,8.89
2023-02-11T21:55:02.086Z,9.02
2023-02-11T21:57:31.635Z,9.05
2023-02-11T22:00:01.680Z,9.02
2023-02-11T22:02:31.120Z,9.09
2023-02-11T22:05:00.584Z,8.94
2023-02-11T22:07:30.124Z,8.91
2023-02-11T22:10:07.315Z,8.87
2023-02-11T22:12:37.945Z,8.70
2023-02-11T22:15:08.054Z,8.86
2023-02-11T22:17:37.496Z,8.78
2023-02-11T22:20:09.024Z,8.79
2023-02-11T22:22:40.625Z,8.91
2023-02-11T22:25:10.196Z,8.69
2023-02-11T22:27:41.334Z,8.50
2023-02-11T22:30:11.600Z,8.03
2023-02-11T22:32:44.119Z,8.17
2023-02-11T22:35:13.498Z,8.12
2023-02-11T22:37:45.251Z,8.28
2023-02-11T22:40:14.776Z,8.36
2023-02-11T22:42:46.535Z,8.49
2023-02-11T22:45:16.163Z,8.57
2023-02-11T22:47:46.347Z,8.72
2023-02-11T22:50:16.993Z,8.82
2023-02-11T22:52:48.664Z,8.87
2023-02-11T22:55:18.064Z,9.01
2023-02-11T22:57:47.656Z,9.17
2023-02-11T23:00:19.274Z,9.23
2023-02-11T23:02:48.481Z,9.04
2023-02-11T23:05:20.280Z,8.95
2023-02-11T23:07:52.147Z,9.06
2023-02-11T23:10:22.136Z,9.13
2023-02-11T23:12:51.908Z,9.14
2023-02-11T23:15:22.049Z,9.09
2023-02-11T23:17:53.144Z,9.37
2023-02-11T23:20:23.276Z,9.43
2023-02-11T23:22:52.954Z,9.68
2023-02-11T23:25:23.096Z,9.46
2023-02-11T23:27:56.203Z,9.47
2023-02-11T23:30:26.685Z,9.53
2023-02-11T23:32:56.539Z,9.65
2023-02-11T23:35:26.325Z,9.87
2023-02-11T23:37:57.425Z,9.91
2023-02-11T23:40:27.223Z,9.66
2023-02-11T23:42:58.667Z,9.54
2023-02-11T23:45:29.067Z,9.66
2023-02-11T23:48:00.161Z,9.87
2023-02-11T23:50:31.342Z,9.89
2023-02-11T23:53:00.882Z,9.89
2023-02-11T23:55:40.587Z,9.99
2023-02-11T23:58:11.625Z,9.91
